createdAt,value
2019-04-16T04:01:20.912Z,93815.14
2019-04-16T04:03:49.442Z,93823.24
2019-04-16T04:06:18.043Z,93805.02
2019-04-16T04:08:48.329Z,93815.14
2019-04-16T04:11:16.399Z,93813.72
2019-04-16T04:13:49.773Z,93813.86
2019-04-16T04:16:15.412Z,93811.80
2019-04-16T04:18:43.957Z,93809.95
2019-04-16T04:21:12.213Z,93808.29
2019-04-16T04:23:40.408Z,93805.23
2019-04-16T04:26:10.176Z,93807.24
2019-04-16T04:28:38.588Z,93811.37
2019-04-16T04:31:06.884Z,93815.66
2019-04-16T04:33:40.920Z,93813.52
2019-04-16T04:36:10.264Z,93818.35
2019-04-16T04:38:38.616Z,93827.15
2019-04-16T04:41:06.871Z,93823.43
2019-04-16T04:43:35.113Z,93823.80
2019-04-16T04:46:03.297Z,93824.22
2019-04-16T04:48:31.478Z,93827.03
2019-04-16T04:50:59.667Z,93828.45
2019-04-16T04:53:28.171Z,93829.81
2019-04-16T04:55:57.155Z,93826.23
2019-04-16T04:58:26.033Z,93827.14
2019-04-16T05:00:54.217Z,93829.51
2019-04-16T05:03:29.475Z,93829.86
2019-04-16T05:06:01.962Z,93833.30
2019-04-16T05:08:30.142Z,93833.45
2019-04-16T05:11:02.693Z,93841.23
2019-04-16T05:13:28.830Z,93844.16
2019-04-16T05:15:58.342Z,93843.05
2019-04-16T05:18:26.920Z,93845.77
2019-04-16T05:20:55.398Z,93848.97
2019-04-16T05:23:25.675Z,93848.17
2019-04-16T05:25:53.491Z,93849.11
2019-04-16T05:28:21.671Z,93851.09
2019-04-16T05:30:52.259Z,93848.41
2019-04-16T05:33:20.051Z,93846.03
2019-04-16T05:35:48.243Z,93850.83
2019-04-16T05:38:16.422Z,93843.89
2019-04-16T05:40:44.610Z,93850.31
2019-04-16T05:43:13.065Z,93849.48
2019-04-16T05:45:41.254Z,93849.43
2019-04-16T05:48:09.452Z,93843.45
2019-04-16T05:50:37.899Z,93844.77
2019-04-16T05:53:08.275Z,93844.55
2019-04-16T05:55:37.934Z,93852.55
2019-04-16T05:58:06.108Z,93857.59
2019-04-16T06:00:38.551Z,93857.92
2019-04-16T06:03:06.104Z,93861.46
2019-04-16T06:05:34.390Z,93866.68
2019-04-16T06:08:06.311Z,93866.28
2019-04-16T06:10:34.125Z,93863.79
2019-04-16T06:13:20.175Z,93870.98
2019-04-16T06:15:54.057Z,93872.69
2019-04-16T06:18:40.047Z,93868.69
2019-04-16T06:21:26.815Z,93873.56
2019-04-16T06:24:06.033Z,93875.80
2019-04-16T06:26:54.304Z,93876.86
2019-04-16T06:29:40.499Z,93875.36
2019-04-16T06:32:29.079Z,93872.52
2019-04-16T06:35:01.573Z,93874.91
2019-04-16T06:37:34.247Z,93877.75
2019-04-16T06:40:04.507Z,93882.77
2019-04-16T06:42:34.314Z,93882.14
2019-04-16T06:45:04.862Z,93888.31
2019-04-16T06:47:35.771Z,93883.22
2019-04-16T06:50:09.429Z,93884.96
2019-04-16T06:52:56.253Z,93881.63
2019-04-16T06:55:42.964Z,93879.11
2019-04-16T06:58:18.926Z,93878.64
2019-04-16T07:00:57.809Z,93875.83
2019-04-16T07:03:43.871Z,93875.16
2019-04-16T07:06:30.390Z,93876.88
2019-04-16T07:09:02.878Z,93873.17
2019-04-16T07:11:32.696Z,93880.58
2019-04-16T07:14:00.888Z,93876.54
2019-04-16T07:16:29.316Z,93877.16
2019-04-16T07:18:57.502Z,93879.83
2019-04-16T07:21:25.684Z,93880.70
2019-04-16T07:23:58.140Z,93876.39
2019-04-16T07:26:23.839Z,93877.22
2019-04-16T07:28:58.542Z,93883.73
2019-04-16T07:31:33.494Z,93882.22
2019-04-16T07:34:02.496Z,93880.69
2019-04-16T07:36:32.306Z,93880.70
2019-04-16T07:39:28.820Z,93876.81
2019-04-16T07:42:10.524Z,93888.53
2019-04-16T07:44:55.976Z,93886.20
2019-04-16T07:47:28.268Z,93883.56
2019-04-16T07:50:01.616Z,93886.43
2019-04-16T07:52:31.497Z,93858.80
2019-04-16T07:55:03.980Z,93892.64
2019-04-16T07:57:32.156Z,93886.07
2019-04-16T08:00:00.620Z,93887.78
2019-04-16T08:02:29.105Z,93885.64
2019-04-16T08:04:57.608Z,93885.07
2019-04-16T08:07:26.073Z,93884.45
2019-04-16T08:09:54.267Z,93882.55
2019-04-16T08:12:30.304Z,93882.25
2019-04-16T08:14:52.641Z,93878.52
2019-04-16T08:17:21.126Z,93884.38
2019-04-16T08:19:49.582Z,93886.17
2019-04-16T08:22:17.812Z,93885.31
2019-04-16T08:24:57.545Z,93883.72
2019-04-16T08:27:23.495Z,93885.19
2019-04-16T08:29:51.676Z,93882.32
2019-04-16T08:32:19.857Z,93874.84
2019-04-16T08:34:48.280Z,93872.86
2019-04-16T08:37:16.447Z,93874.50
2019-04-16T08:39:44.628Z,93870.96
2019-04-16T08:42:12.812Z,93869.84
2019-04-16T08:44:41.282Z,93865.07
2019-04-16T08:47:12.024Z,93864.58
2019-04-16T08:49:39.362Z,93865.00
2019-04-16T08:52:10.180Z,93864.45
2019-04-16T08:54:37.439Z,93862.61
2019-04-16T08:57:05.611Z,93853.36
2019-04-16T08:59:33.793Z,93855.67
2019-04-16T09:02:01.961Z,93857.57
2019-04-16T09:04:34.117Z,93853.27
2019-04-16T09:07:11.387Z,93849.46
2019-04-16T09:09:34.908Z,93855.11
2019-04-16T09:12:07.957Z,93859.41
2019-04-16T09:14:36.347Z,93853.56
2019-04-16T09:17:09.612Z,93858.13
2019-04-16T09:19:37.866Z,93854.59
2019-04-16T09:22:06.235Z,93860.72
2019-04-16T09:24:41.814Z,93852.56
2019-04-16T09:27:14.586Z,93850.16
2019-04-16T09:29:44.396Z,93855.72
2019-04-16T09:32:14.208Z,93867.92
2019-04-16T09:34:49.741Z,93862.50
2019-04-16T09:37:29.333Z,93855.84
2019-04-16T09:40:16.661Z,93862.80
2019-04-16T09:42:38.481Z,93859.66
2019-04-16T09:45:08.588Z,93855.50
2019-04-16T09:47:36.770Z,93865.09
2019-04-16T09:50:09.805Z,93864.36
2019-04-16T09:52:36.230Z,93867.52
2019-04-16T09:55:05.242Z,93866.20
2019-04-16T09:57:33.722Z,93854.06
2019-04-16T10:00:03.543Z,93857.01
2019-04-16T10:02:33.649Z,93855.17
2019-04-16T10:05:01.821Z,93857.09
2019-04-16T10:07:30.311Z,93849.13
2019-04-16T10:09:58.499Z,93846.67
2019-04-16T10:12:26.668Z,93858.50
2019-04-16T10:14:55.141Z,93852.99
2019-04-16T10:17:23.511Z,93854.81
2019-04-16T10:19:51.663Z,93855.95
2019-04-16T10:22:20.103Z,93861.64
2019-04-16T10:24:52.848Z,93857.06
2019-04-16T10:27:31.204Z,93858.91
2019-04-16T10:29:58.406Z,93854.91
2019-04-16T10:32:28.297Z,93857.80
2019-04-16T10:34:56.468Z,93860.52
2019-04-16T10:37:24.659Z,93855.70
2019-04-16T10:40:00.452Z,93856.05
2019-04-16T10:42:30.283Z,93854.27
2019-04-16T10:45:00.109Z,93860.52
2019-04-16T10:47:35.596Z,93844.20
2019-04-16T10:50:06.814Z,93845.45
2019-04-16T10:52:55.680Z,93844.66
2019-04-16T10:55:24.395Z,93842.87
2019-04-16T10:58:10.427Z,93837.59
2019-04-16T11:00:43.190Z,93841.10
2019-04-16T11:03:24.921Z,93838.69
2019-04-16T11:05:57.853Z,93836.91
2019-04-16T11:08:26.160Z,93833.86
2019-04-16T11:10:54.324Z,93830.05
2019-04-16T11:13:29.838Z,93831.37
2019-04-16T11:15:59.663Z,93826.08
2019-04-16T11:18:28.114Z,93834.75
2019-04-16T11:20:56.366Z,93826.56
2019-04-16T11:23:24.560Z,93831.73
2019-04-16T11:25:52.727Z,93826.38
2019-04-16T11:28:20.922Z,93830.20
2019-04-16T11:30:53.647Z,93820.05
2019-04-16T11:33:21.825Z,93824.02
2019-04-16T11:35:52.747Z,93823.40
2019-04-16T11:38:19.925Z,93816.79
2019-04-16T11:40:48.389Z,93819.13
2019-04-16T11:43:16.874Z,93813.00
2019-04-16T11:45:45.035Z,93813.08
2019-04-16T11:48:13.382Z,93812.01
2019-04-16T11:50:41.932Z,93818.22
2019-04-16T11:53:10.480Z,93812.18
2019-04-16T11:55:38.732Z,93811.08
2019-04-16T11:58:08.645Z,93813.16
2019-04-16T12:00:47.364Z,93807.00
2019-04-16T12:03:17.721Z,93804.80
2019-04-16T12:06:03.308Z,93816.78
2019-04-16T12:08:33.125Z,93810.70
2019-04-16T12:11:08.792Z,93812.30
2019-04-16T12:13:47.933Z,93813.31
2019-04-16T12:16:35.539Z,93809.06
2019-04-16T12:19:08.231Z,93808.00
2019-04-16T12:21:40.757Z,93800.12
2019-04-16T12:24:25.983Z,93805.00
2019-04-16T12:26:58.680Z,93805.72
2019-04-16T12:29:43.802Z,93800.28
2019-04-16T12:32:16.422Z,93810.55
2019-04-16T12:35:04.315Z,93806.90
2019-04-16T12:37:50.461Z,93808.77
2019-04-16T12:40:21.182Z,93813.22
2019-04-16T12:42:56.908Z,93805.75
2019-04-16T12:45:29.478Z,93805.10
2019-04-16T12:48:02.256Z,93807.45
2019-04-16T12:50:35.086Z,93804.41
2019-04-16T12:53:16.948Z,93807.13
2019-04-16T12:56:07.407Z,93806.32
2019-04-16T12:58:40.850Z,93807.21
2019-04-16T13:01:20.036Z,93817.62
2019-04-16T13:03:52.590Z,93816.17
2019-04-16T13:06:37.631Z,93809.41
2019-04-16T13:09:26.756Z,93808.86
2019-04-16T13:11:59.523Z,93810.84
2019-04-16T13:14:32.063Z,93807.39
2019-04-16T13:17:07.631Z,93806.30
2019-04-16T13:19:43.409Z,93800.51
2019-04-16T13:22:13.217Z,93796.00
2019-04-16T13:24:52.231Z,93798.34
2019-04-16T13:27:22.314Z,93798.66
2019-04-16T13:29:50.505Z,93800.55
2019-04-16T13:32:18.683Z,93789.92
2019-04-16T13:34:47.144Z,93798.16
2019-04-16T13:37:15.404Z,93802.16
2019-04-16T13:39:54.039Z,93801.06
2019-04-16T13:42:22.199Z,93803.05
2019-04-16T13:44:55.150Z,93800.19
2019-04-16T13:47:23.602Z,93794.53
2019-04-16T13:49:56.111Z,93793.98
2019-04-16T13:52:25.465Z,93797.72
2019-04-16T13:55:11.973Z,93799.17
2019-04-16T13:57:44.266Z,93804.25
2019-04-16T14:00:30.335Z,93800.84
2019-04-16T14:03:00.321Z,93797.59
2019-04-16T14:05:28.841Z,93797.63
2019-04-16T14:07:57.315Z,93799.27
2019-04-16T14:10:25.500Z,93796.41
2019-04-16T14:12:53.759Z,93797.16
2019-04-16T14:15:31.817Z,93800.62
2019-04-16T14:17:59.113Z,93799.77
2019-04-16T14:20:23.811Z,93803.39
2019-04-16T14:22:53.662Z,93801.02
2019-04-16T14:25:22.077Z,93800.97
2019-04-16T14:27:50.245Z,93797.09
2019-04-16T14:30:20.418Z,93801.48
2019-04-16T14:32:48.602Z,93798.98
2019-04-16T14:35:32.459Z,93802.16
2019-04-16T14:37:48.369Z,93804.52
2019-04-16T14:40:18.166Z,93798.51
2019-04-16T14:42:46.344Z,93798.51
2019-04-16T14:45:16.186Z,93796.48
2019-04-16T14:47:44.697Z,93794.58
2019-04-16T14:50:13.848Z,93795.53
2019-04-16T14:52:42.138Z,93798.73
2019-04-16T14:55:12.306Z,93796.28
2019-04-16T14:57:58.365Z,93806.69
2019-04-16T15:00:36.674Z,93805.25
2019-04-16T15:03:06.488Z,93806.39
2019-04-16T15:05:36.637Z,93803.88
2019-04-16T15:08:06.455Z,93803.08
2019-04-16T15:10:52.224Z,93800.56
2019-04-16T15:13:22.363Z,93801.19
2019-04-16T15:16:10.993Z,93802.81
2019-04-16T15:18:48.934Z,93808.02
2019-04-16T15:21:31.116Z,93808.77
2019-04-16T15:24:06.696Z,93807.14
2019-04-16T15:26:36.800Z,93812.47
2019-04-16T15:29:09.412Z,93808.27
2019-04-16T15:31:42.441Z,93804.66
2019-04-16T15:34:18.152Z,93811.02
2019-04-16T15:36:50.123Z,93808.35
2019-04-16T15:39:19.859Z,93810.30
2019-04-16T15:42:05.801Z,93805.73
2019-04-16T15:44:35.628Z,93812.61
2019-04-16T15:47:05.459Z,93804.56
2019-04-16T15:49:55.659Z,93802.66
2019-04-16T15:52:30.731Z,93809.30
2019-04-16T15:55:17.052Z,93813.63
2019-04-16T15:57:50.213Z,93808.92
2019-04-16T16:00:20.039Z,93814.23
2019-04-16T16:02:55.359Z,93812.56
2019-04-16T16:05:31.134Z,93807.44
2019-04-16T16:08:09.938Z,93815.70
2019-04-16T16:10:45.102Z,93817.49
2019-04-16T16:13:09.910Z,93795.77
2019-04-16T16:15:40.477Z,93826.55
2019-04-16T16:18:08.583Z,93830.52
2019-04-16T16:20:37.058Z,93830.50
2019-04-16T16:23:05.238Z,93837.59
2019-04-16T16:25:33.423Z,93835.52
2019-04-16T16:28:01.898Z,93853.19
2019-04-16T16:30:30.075Z,93841.56
2019-04-16T16:32:58.565Z,93845.45
2019-04-16T16:35:26.729Z,93848.48
2019-04-16T16:37:55.060Z,93862.84
2019-04-16T16:40:23.505Z,93864.20
2019-04-16T16:42:51.965Z,93872.94
2019-04-16T16:45:22.041Z,93884.22
2019-04-16T16:47:50.235Z,93877.44
2019-04-16T16:50:18.417Z,93883.73
2019-04-16T16:53:04.915Z,93885.77
2019-04-16T16:55:37.472Z,93886.23
2019-04-16T16:58:14.090Z,93885.36
2019-04-16T17:00:43.914Z,93895.52
2019-04-16T17:03:13.747Z,93897.30
2019-04-16T17:05:45.188Z,93901.17
2019-04-16T17:08:13.650Z,93899.98
2019-04-16T17:10:42.892Z,93902.29
2019-04-16T17:13:14.674Z,93901.59
2019-04-16T17:15:41.231Z,93910.21
2019-04-16T17:18:09.424Z,93915.42
2019-04-16T17:20:38.373Z,93911.66
2019-04-16T17:23:07.522Z,93914.01
2019-04-16T17:25:36.978Z,93926.11
2019-04-16T17:28:05.613Z,93920.70
2019-04-16T17:30:34.084Z,93923.49
2019-04-16T17:33:02.289Z,93933.77
2019-04-16T17:35:30.533Z,93930.48
2019-04-16T17:38:02.774Z,93938.02
2019-04-16T17:40:36.611Z,93948.87
2019-04-16T17:43:13.078Z,93949.20
2019-04-16T17:45:40.453Z,93954.85
2019-04-16T17:48:26.685Z,93958.08
2019-04-16T17:51:02.669Z,93954.34
2019-04-16T17:53:32.502Z,93961.88
2019-04-16T17:56:18.787Z,93961.09
2019-04-16T17:58:54.963Z,93953.92
2019-04-16T18:01:43.440Z,93963.88
2019-04-16T18:04:29.512Z,93963.96
2019-04-16T18:07:01.863Z,93976.73
2019-04-16T18:09:31.685Z,93978.25
2019-04-16T18:12:01.511Z,93977.22
2019-04-16T18:14:47.534Z,93980.67
2019-04-16T18:17:17.344Z,93983.84
2019-04-16T18:19:53.110Z,93981.73
2019-04-16T18:22:25.373Z,93974.73
2019-04-16T18:24:55.483Z,93972.45
2019-04-16T18:27:34.325Z,93975.53
2019-04-16T18:30:07.156Z,93979.53
2019-04-16T18:32:52.761Z,93978.23
2019-04-16T18:35:22.598Z,93981.12
2019-04-16T18:37:52.575Z,93979.80
2019-04-16T18:40:28.235Z,93987.20
2019-04-16T18:43:16.272Z,93983.83
2019-04-16T18:45:58.407Z,93985.73
2019-04-16T18:48:28.496Z,93991.30
2019-04-16T18:51:00.206Z,93992.97
2019-04-16T18:53:26.885Z,93998.08
2019-04-16T18:55:55.479Z,94000.78
2019-04-16T18:58:23.964Z,94009.14
2019-04-16T19:00:54.075Z,94009.28
2019-04-16T19:03:22.574Z,94018.05
2019-04-16T19:05:50.768Z,94019.98
2019-04-16T19:08:18.936Z,94028.95
2019-04-16T19:10:47.395Z,94022.94
2019-04-16T19:13:15.576Z,94031.00
2019-04-16T19:15:43.773Z,94034.63
2019-04-16T19:18:19.510Z,94036.66
2019-04-16T19:20:41.857Z,94042.38
2019-04-16T19:23:10.045Z,94039.56
2019-04-16T19:25:38.236Z,94040.92
2019-04-16T19:28:06.967Z,94044.72
2019-04-16T19:30:35.242Z,94049.55
2019-04-16T19:33:03.727Z,94059.02
2019-04-16T19:35:31.917Z,94062.75
2019-04-16T19:38:02.294Z,94063.32
2019-04-16T19:40:30.000Z,94066.47
2019-04-16T19:43:02.617Z,94072.21
2019-04-16T19:45:28.695Z,94071.47
2019-04-16T19:48:00.324Z,94081.96
2019-04-16T19:50:33.250Z,94081.68
2019-04-16T19:52:57.245Z,94084.58
2019-04-16T19:55:25.419Z,94090.33
2019-04-16T19:57:56.808Z,94095.05
2019-04-16T20:00:23.895Z,94089.54
2019-04-16T20:02:52.077Z,94099.25
2019-04-16T20:05:20.245Z,94094.02
2019-04-16T20:07:48.842Z,94100.61
2019-04-16T20:10:17.309Z,94097.27
2019-04-16T20:12:45.782Z,94097.82
2019-04-16T20:15:14.602Z,94098.91
2019-04-16T20:17:42.795Z,94104.73
2019-04-16T20:20:11.233Z,94100.39
2019-04-16T20:22:39.415Z,94098.11
2019-04-16T20:25:07.588Z,94100.00
2019-04-16T20:27:36.290Z,94099.27
2019-04-16T20:30:06.803Z,94105.59
2019-04-16T20:32:35.155Z,94099.89
2019-04-16T20:35:03.826Z,94100.69
2019-04-16T20:37:32.791Z,94102.30
2019-04-16T20:40:01.275Z,94100.25
2019-04-16T20:42:29.600Z,94100.55
2019-04-16T20:44:57.771Z,94104.98
2019-04-16T20:47:26.140Z,94105.52
2019-04-16T20:49:54.575Z,94107.09
2019-04-16T20:52:23.084Z,94103.94
2019-04-16T20:54:54.414Z,94109.95
2019-04-16T20:57:25.322Z,94107.88
2019-04-16T20:59:52.582Z,94113.60
2019-04-16T21:34:36.579Z,94138.73
2019-04-16T21:37:15.227Z,94144.22
2019-04-16T21:39:47.154Z,94141.35
2019-04-16T21:42:15.492Z,94139.03
2019-04-16T21:44:44.607Z,94139.55
2019-04-16T21:47:13.622Z,94139.57
2019-04-16T21:49:45.048Z,94142.45
2019-04-16T21:52:12.047Z,94141.91
2019-04-16T21:54:40.244Z,94143.76
2019-04-16T21:57:12.937Z,94144.77
2019-04-16T21:59:38.658Z,94147.66
2019-04-16T22:02:23.612Z,94152.86
2019-04-16T22:04:51.802Z,94151.28
2019-04-16T22:07:24.195Z,94155.44
2019-04-16T22:09:50.150Z,94159.08
2019-04-16T22:12:18.650Z,94155.94
2019-04-16T22:14:46.850Z,94160.64
2019-04-16T22:17:15.020Z,94160.09
2019-04-16T22:19:54.008Z,94161.61
2019-04-16T22:22:15.012Z,94162.64
2019-04-16T22:24:43.317Z,94167.30
2019-04-16T22:27:11.496Z,94164.42
2019-04-16T22:29:39.692Z,94173.95
2019-04-16T22:32:07.869Z,94176.80
2019-04-16T22:34:36.055Z,94175.20
2019-04-16T22:37:04.310Z,94181.62
2019-04-16T22:39:51.255Z,94180.59
2019-04-16T22:42:26.416Z,94182.41
2019-04-16T22:45:05.393Z,94180.91
2019-04-16T22:47:35.505Z,94185.58
2019-04-16T22:50:14.788Z,94187.60
2019-04-16T22:52:34.915Z,94188.30
2019-04-16T22:55:03.499Z,94194.25
2019-04-16T22:57:31.865Z,94195.31
2019-04-16T23:00:00.360Z,94193.81
2019-04-16T23:02:30.307Z,94196.86
2019-04-16T23:04:59.962Z,94172.53
2019-04-16T23:07:28.349Z,94200.56
2019-04-16T23:09:56.848Z,94199.72
2019-04-16T23:12:28.093Z,94204.41
2019-04-16T23:14:55.247Z,94207.78
2019-04-16T23:17:25.071Z,94211.64
2019-04-16T23:19:54.734Z,94209.52
2019-04-16T23:22:23.452Z,94207.42
2019-04-16T23:24:55.273Z,94206.31
2019-04-16T23:27:21.840Z,94206.08
2019-04-16T23:29:50.047Z,94203.25
2019-04-16T23:32:18.219Z,94206.67
2019-04-16T23:34:46.418Z,94217.33
2019-04-16T23:37:14.592Z,94214.75
2019-04-16T23:39:42.775Z,94218.70
2019-04-16T23:42:11.295Z,94215.33
2019-04-16T23:44:41.174Z,94215.80
2019-04-16T23:47:20.084Z,94220.53
2019-04-16T23:49:59.181Z,94218.44
2019-04-16T23:52:31.938Z,94216.87
2019-04-16T23:55:03.802Z,94214.75
2019-04-16T23:57:35.897Z,94218.07
